Portada
METAR-TAF:

METAR-TAF

Aeroports :

Bou Saâda, Algèria

latitud: 35-20N, longitud: 004-12E, altitud: 461 m

Observació

L'informe es va fer fa 31 minuts, a les 07:00 UTC
Vent 3 kt del Est
Temperatura 27°C
Humitat 42%
Pressió 1015 hPa
Visibilitat: 8000 m

METAR: DAAD 250700Z 08003KT 8000 NSC 27/13 Q1015

Hora: 08:31 (07:31 UTC)

Pronòstic

L'informe es va fer fa 14 hores i 31 minuts, a les 17:00 UTC
Pronòstic vàlid del 24 a les 18 UTC al 25 a les 03 UTC
Vent 12 kt del Nord/Nord-Oest
Visibilitat 10 km o més
Escasses núvols a una alçada de 3000 ft
Probabilitat 30% :
Temporalment
l' 24 a les 18 UTC al 24 a les 21 UTC
Escasses núvols a una alçada de 3300 ft, Cumulonimbus.

TAF: DAAD 241700Z 2418/2503 34012KT 9999 FEW030 PROB30 TEMPO 2418/2421 FEW033CB

Observacions i pronòstics meteorològics de més de 4000 aeroports (METAR i TAF).

Les estacions disponibles són els punts grocs i vermells al mapa.

Posi el ratolí al punt desitjat per veure el nom de l'estació.

Feu clic per veure les observacions i els pronòstics meteorològics.

Per canviar el mapa: feu clic els botons verds amb una creu de color negre per apropar; al botó verd amb un guió per allunyar la imatge; o en les fletxes verdes per a mapes adjacents.


METAR-TAF: